createdAt,value
2023-04-25T00:00:08.013Z,4.10
2023-04-25T00:02:41.557Z,4.47
2023-04-25T00:05:09.387Z,5.28
2023-04-25T00:07:36.726Z,4.38
2023-04-25T00:10:04.550Z,5.25
2023-04-25T00:12:32.256Z,4.38
2023-04-25T00:15:01.065Z,5.30
2023-04-25T00:17:33.435Z,5.35
2023-04-25T00:20:01.072Z,5.28
2023-04-25T00:22:28.514Z,5.22
2023-04-25T00:24:58.250Z,5.35
2023-04-25T00:27:25.402Z,5.25
2023-04-25T00:29:52.756Z,5.13
2023-04-25T00:32:20.541Z,5.05
2023-04-25T00:34:47.933Z,4.10
2023-04-25T00:37:15.489Z,3.28
2023-04-25T00:39:44.775Z,3.97
2023-04-25T00:42:12.825Z,3.55
2023-04-25T00:44:41.176Z,3.33
2023-04-25T00:47:09.089Z,3.20
2023-04-25T00:49:36.631Z,2.90
2023-04-25T00:52:04.059Z,2.90
2023-04-25T00:54:31.804Z,3.00
2023-04-25T00:56:59.814Z,3.53
2023-04-25T00:59:28.282Z,3.35
2023-04-25T01:01:56.034Z,4.20
2023-04-25T01:04:23.660Z,4.72
2023-04-25T01:06:51.267Z,4.28
2023-04-25T01:09:20.601Z,5.20
2023-04-25T01:11:47.876Z,5.38
2023-04-25T01:14:15.024Z,5.20
2023-04-25T01:16:42.582Z,5.55
2023-04-25T01:19:14.647Z,5.65
2023-04-25T01:21:42.272Z,5.38
2023-04-25T01:24:09.589Z,4.90
2023-04-25T01:26:37.538Z,5.00
2023-04-25T01:29:06.015Z,4.63
2023-04-25T01:31:34.186Z,4.68
2023-04-25T01:34:01.476Z,4.97
2023-04-25T01:36:30.131Z,5.00
2023-04-25T01:38:57.983Z,4.22
2023-04-25T01:41:25.968Z,4.57
2023-04-25T01:43:53.587Z,5.20
2023-04-25T01:46:21.358Z,4.07
2023-04-25T01:48:48.784Z,4.57
2023-04-25T01:51:16.778Z,4.07
2023-04-25T01:53:44.581Z,3.75
2023-04-25T01:56:12.349Z,4.50
2023-04-25T01:58:40.372Z,4.20
2023-04-25T02:01:34.319Z,4.55
2023-04-25T02:04:15.630Z,4.50
2023-04-25T02:06:43.161Z,4.22
2023-04-25T02:09:10.757Z,4.22
2023-04-25T02:11:43.230Z,4.40
2023-04-25T02:14:26.260Z,4.20
2023-04-25T02:17:03.304Z,3.80
2023-04-25T02:19:32.186Z,4.53
2023-04-25T02:21:59.684Z,3.90
2023-04-25T02:24:29.001Z,4.20
2023-04-25T02:26:57.222Z,4.00
2023-04-25T02:29:24.557Z,4.30
2023-04-25T02:31:51.900Z,4.25
2023-04-25T02:34:19.313Z,3.72
2023-04-25T02:36:46.557Z,4.47
2023-04-25T02:39:13.776Z,4.63
2023-04-25T02:41:41.127Z,4.70
2023-04-25T02:44:08.516Z,5.53
2023-04-25T02:46:39.284Z,4.53
2023-04-25T02:49:07.462Z,4.60
2023-04-25T02:51:35.484Z,3.95
2023-04-25T02:54:03.099Z,3.97
2023-04-25T02:56:32.172Z,4.15
2023-04-25T02:58:59.431Z,4.55
2023-04-25T03:01:27.327Z,4.38
2023-04-25T03:03:55.110Z,4.70
2023-04-25T03:06:22.749Z,4.50
2023-04-25T03:08:49.945Z,4.00
2023-04-25T03:11:17.293Z,4.22
2023-04-25T03:13:44.581Z,4.35
2023-04-25T03:16:12.761Z,3.65
2023-04-25T03:18:39.884Z,3.47
2023-04-25T03:21:07.152Z,3.97
2023-04-25T03:23:35.055Z,3.78
2023-04-25T03:26:02.421Z,3.25
2023-04-25T03:28:29.753Z,3.75
2023-04-25T03:30:58.132Z,3.47
2023-04-25T03:33:25.511Z,3.40
2023-04-25T03:35:53.090Z,3.33
2023-04-25T03:38:20.873Z,3.28
2023-04-25T03:40:48.222Z,3.42
2023-04-25T03:43:21.967Z,3.67
2023-04-25T03:45:58.342Z,3.28
2023-04-25T03:48:27.971Z,3.10
2023-04-25T03:50:55.824Z,2.80
2023-04-25T03:53:23.435Z,3.08
2023-04-25T03:56:28.938Z,3.08
2023-04-25T03:59:03.169Z,2.90
2023-04-25T04:01:31.562Z,3.45
2023-04-25T04:03:59.009Z,2.88
2023-04-25T04:06:27.729Z,3.05
2023-04-25T04:09:04.247Z,3.33
2023-04-25T04:11:35.054Z,3.03
2023-04-25T04:14:02.322Z,3.50
2023-04-25T04:16:31.448Z,3.30
2023-04-25T04:19:00.968Z,3.30
2023-04-25T04:21:28.676Z,3.63
2023-04-25T04:23:56.022Z,3.28
2023-04-25T04:26:24.434Z,3.42
2023-04-25T04:29:06.280Z,2.92
2023-04-25T04:31:41.344Z,3.28
2023-04-25T04:34:08.702Z,3.40
2023-04-25T04:36:36.384Z,3.35
2023-04-25T04:39:04.733Z,3.55
2023-04-25T04:41:44.979Z,4.30
2023-04-25T04:44:16.325Z,4.22
2023-04-25T04:46:50.519Z,4.88
2023-04-25T04:49:47.614Z,5.10
2023-04-25T04:52:44.517Z,4.90
2023-04-25T04:55:31.139Z,5.00
2023-04-25T04:58:18.638Z,4.80
2023-04-25T05:00:56.405Z,4.80
2023-04-25T05:03:34.767Z,3.95
2023-04-25T05:06:22.668Z,2.85
2023-04-25T05:09:13.083Z,2.20
2023-04-25T05:12:02.373Z,2.50
2023-04-25T05:14:49.957Z,1.80
2023-04-25T05:23:26.037Z,3.03
2023-04-25T05:26:04.380Z,3.50
2023-04-25T05:28:58.599Z,2.50
2023-04-25T05:31:55.094Z,3.10
2023-04-25T05:34:22.319Z,3.47
2023-04-25T05:36:57.223Z,2.70
2023-04-25T05:39:25.630Z,3.30
2023-04-25T05:42:09.816Z,4.10
2023-04-25T05:45:01.759Z,3.88
2023-04-25T05:47:55.163Z,4.10
2023-04-25T05:50:39.518Z,4.25
2023-04-25T05:53:33.497Z,3.88
2023-04-25T05:56:02.877Z,4.13
2023-04-25T05:58:31.152Z,3.90
2023-04-25T06:01:00.656Z,3.85
2023-04-25T06:03:28.767Z,3.58
2023-04-25T06:05:58.546Z,3.78
2023-04-25T06:08:26.493Z,3.42
2023-04-25T06:10:53.878Z,2.97
2023-04-25T06:13:21.098Z,3.20
2023-04-25T06:15:48.820Z,2.95
2023-04-25T06:18:16.053Z,3.13
2023-04-25T06:20:43.432Z,3.20
2023-04-25T06:23:10.773Z,3.92
2023-04-25T06:26:03.196Z,3.40
2023-04-25T06:28:34.394Z,3.22
2023-04-25T06:31:02.302Z,3.20
2023-04-25T06:33:30.293Z,2.85
2023-04-25T06:35:58.293Z,3.13
2023-04-25T06:38:29.403Z,2.90
2023-04-25T06:40:58.584Z,3.30
2023-04-25T06:43:29.168Z,3.33
2023-04-25T06:46:17.896Z,3.25
2023-04-25T06:48:48.164Z,3.58
2023-04-25T06:51:16.123Z,3.17
2023-04-25T06:53:45.057Z,3.25
2023-04-25T06:56:22.462Z,3.80
2023-04-25T06:59:01.372Z,3.72
2023-04-25T07:01:31.860Z,3.40
2023-04-25T07:04:01.487Z,3.33
2023-04-25T07:06:32.194Z,2.80
2023-04-25T07:08:59.692Z,2.90
2023-04-25T07:11:27.044Z,3.17
2023-04-25T07:13:54.202Z,3.03
2023-04-25T07:16:21.852Z,2.65
2023-04-25T07:18:49.382Z,2.72
2023-04-25T07:21:16.795Z,3.03
2023-04-25T07:23:46.248Z,3.03
2023-04-25T07:26:18.297Z,2.90
2023-04-25T07:29:05.793Z,3.30
2023-04-25T07:31:33.003Z,3.10
2023-04-25T07:34:02.043Z,3.00
2023-04-25T07:36:29.780Z,3.20
2023-04-25T07:38:58.643Z,3.30
2023-04-25T07:41:27.131Z,3.45
2023-04-25T07:43:54.515Z,3.30
2023-04-25T07:46:22.360Z,2.92
2023-04-25T07:48:49.914Z,3.13
2023-04-25T07:51:17.397Z,3.47
2023-04-25T07:53:44.709Z,2.72
2023-04-25T07:56:15.446Z,3.25
2023-04-25T07:58:45.668Z,2.88
2023-04-25T08:01:15.801Z,2.95
2023-04-25T08:03:58.724Z,2.60
2023-04-25T08:06:45.159Z,2.80
2023-04-25T08:09:20.196Z,2.42
2023-04-25T08:11:50.514Z,2.50
2023-04-25T08:14:22.173Z,2.67
2023-04-25T08:16:50.120Z,2.75
2023-04-25T08:19:18.223Z,2.45
2023-04-25T08:21:47.117Z,2.35
2023-04-25T08:24:19.685Z,2.42
2023-04-25T08:26:46.913Z,3.00
2023-04-25T08:29:17.556Z,2.58
2023-04-25T08:31:45.588Z,2.58
2023-04-25T08:34:14.188Z,2.63
2023-04-25T08:36:48.419Z,2.72
2023-04-25T08:39:35.154Z,2.15
2023-04-25T08:42:22.812Z,2.55
2023-04-25T08:44:51.738Z,2.55
2023-04-25T08:47:23.367Z,2.47
2023-04-25T08:49:56.946Z,2.55
2023-04-25T08:52:26.471Z,2.58
2023-04-25T08:54:56.487Z,2.65
2023-04-25T08:57:24.421Z,2.63
2023-04-25T08:59:56.609Z,2.15
2023-04-25T09:02:26.331Z,2.05
2023-04-25T09:04:55.970Z,2.13
2023-04-25T09:07:23.818Z,1.77
2023-04-25T09:09:51.307Z,1.40
2023-04-25T09:12:35.672Z,1.52
2023-04-25T09:15:05.331Z,1.23
2023-04-25T09:17:58.749Z,1.52
2023-04-25T09:20:31.899Z,1.38
2023-04-25T09:23:04.929Z,1.40
2023-04-25T09:25:40.047Z,1.73
2023-04-25T09:28:09.504Z,2.28
2023-04-25T09:30:37.860Z,1.70
2023-04-25T09:33:12.947Z,2.00
2023-04-25T09:35:46.569Z,2.25
2023-04-25T09:38:25.326Z,2.22
2023-04-25T09:40:58.010Z,2.53
2023-04-25T09:43:46.097Z,2.00
2023-04-25T09:46:13.805Z,2.47
2023-04-25T09:48:52.338Z,2.00
2023-04-25T09:51:28.732Z,1.90
2023-04-25T09:53:58.024Z,1.20
2023-04-25T09:56:42.341Z,1.20
2023-04-25T09:59:12.557Z,1.30
2023-04-25T10:01:42.975Z,1.20
2023-04-25T10:04:23.981Z,1.45
2023-04-25T10:07:15.382Z,1.35
2023-04-25T10:09:48.365Z,1.83
2023-04-25T10:12:15.900Z,1.65
2023-04-25T10:14:43.816Z,1.50
2023-04-25T10:17:12.573Z,2.08
2023-04-25T10:19:40.836Z,1.85
2023-04-25T10:22:34.071Z,1.98
2023-04-25T10:25:05.072Z,1.67
2023-04-25T10:27:33.470Z,1.50
2023-04-25T10:30:05.575Z,1.30
2023-04-25T10:32:34.833Z,1.47
2023-04-25T10:35:28.794Z,1.38
2023-04-25T10:37:59.944Z,1.30
2023-04-25T10:40:28.180Z,1.35
2023-04-25T10:42:56.374Z,1.60
2023-04-25T10:45:23.992Z,1.10
2023-04-25T10:47:51.784Z,1.27
2023-04-25T10:50:19.910Z,1.48
2023-04-25T10:52:47.388Z,0.90
2023-04-25T10:55:17.052Z,1.20
2023-04-25T10:57:50.960Z,1.00
2023-04-25T11:00:20.887Z,0.80
2023-04-25T11:02:59.516Z,1.00
2023-04-25T11:08:45.059Z,1.10
2023-04-25T11:11:12.339Z,1.52
2023-04-25T11:13:39.506Z,1.70
2023-04-25T11:16:13.215Z,1.77
2023-04-25T11:18:45.296Z,1.40
2023-04-25T11:21:14.524Z,1.33
2023-04-25T11:23:41.768Z,1.30
2023-04-25T11:26:09.138Z,1.58
2023-04-25T11:28:36.674Z,1.13
2023-04-25T11:31:05.733Z,1.10
2023-04-25T11:33:33.196Z,0.98
2023-04-25T11:36:05.158Z,1.30
2023-04-25T11:38:35.268Z,1.40
2023-04-25T11:41:03.464Z,1.25
2023-04-25T11:43:30.978Z,1.00
2023-04-25T11:46:01.801Z,1.10
2023-04-25T11:48:37.503Z,1.15
2023-04-25T11:51:05.606Z,1.33
2023-04-25T11:53:33.190Z,1.50
2023-04-25T11:56:00.961Z,0.93
2023-04-25T11:58:29.098Z,1.00
2023-04-25T12:00:59.674Z,1.05
2023-04-25T12:03:32.407Z,1.02
2023-04-25T12:06:05.401Z,0.85
2023-04-25T12:08:36.836Z,1.00
2023-04-25T12:11:09.276Z,1.30
2023-04-25T12:13:54.375Z,1.15
2023-04-25T12:16:21.742Z,0.98
2023-04-25T12:18:49.337Z,0.80
2023-04-25T12:21:16.681Z,1.42
2023-04-25T12:23:43.996Z,1.00
2023-04-25T12:26:11.273Z,0.90
2023-04-25T12:28:38.469Z,0.98
2023-04-25T12:31:07.236Z,1.17
2023-04-25T12:33:38.938Z,0.80
2023-04-25T12:36:10.312Z,0.73
2023-04-25T12:38:43.190Z,0.63
2023-04-25T12:41:10.672Z,0.70
2023-04-25T12:43:37.909Z,1.05
2023-04-25T12:46:05.360Z,0.90
2023-04-25T12:48:32.639Z,0.93
2023-04-25T12:51:00.258Z,0.95
2023-04-25T12:53:27.437Z,0.75
2023-04-25T12:58:24.694Z,0.77
2023-04-25T13:00:51.927Z,1.10
2023-04-25T13:03:19.879Z,0.60
2023-04-25T13:05:47.383Z,0.73
2023-04-25T13:08:14.618Z,1.05
2023-04-25T13:10:42.089Z,1.10
2023-04-25T13:13:09.673Z,1.00
2023-04-25T13:15:37.644Z,0.93
2023-04-25T13:18:08.772Z,1.17
2023-04-25T13:20:36.188Z,0.90
2023-04-25T13:23:03.505Z,1.00
2023-04-25T13:25:31.014Z,0.90
2023-04-25T13:27:58.236Z,0.80
2023-04-25T13:30:25.534Z,0.90
2023-04-25T13:32:53.817Z,0.82
2023-04-25T13:35:21.088Z,0.65
2023-04-25T13:37:48.339Z,0.80
2023-04-25T13:40:15.608Z,0.80
2023-04-25T13:42:45.531Z,0.90
2023-04-25T13:45:13.045Z,0.90
2023-04-25T13:47:40.676Z,0.70
2023-04-25T13:50:19.492Z,0.90
2023-04-25T13:52:50.207Z,0.98
2023-04-25T13:55:25.283Z,0.90
2023-04-25T13:57:53.873Z,1.23
2023-04-25T14:00:22.460Z,0.77
2023-04-25T14:02:51.032Z,0.75
2023-04-25T14:05:18.640Z,0.60
2023-04-25T14:07:46.011Z,0.65
2023-04-25T14:10:13.493Z,0.75
2023-04-25T14:12:41.290Z,1.08
2023-04-25T14:15:08.804Z,0.80
2023-04-25T14:17:36.258Z,0.50
2023-04-25T14:20:06.649Z,0.98
2023-04-25T14:22:34.103Z,0.90
2023-04-25T14:25:01.447Z,0.80
2023-04-25T14:27:31.064Z,0.90
2023-04-25T14:29:58.308Z,0.73
2023-04-25T14:32:25.607Z,0.77
2023-04-25T14:34:52.992Z,0.98
2023-04-25T14:37:20.348Z,0.55
2023-04-25T14:39:47.529Z,0.50
2023-04-25T14:42:14.821Z,0.60
2023-04-25T14:44:42.067Z,0.50
2023-04-25T14:47:09.357Z,0.63
2023-04-25T14:49:36.568Z,0.40
2023-04-25T14:52:04.324Z,0.47
2023-04-25T14:54:31.548Z,0.60
2023-04-25T14:56:58.826Z,0.73
2023-04-25T14:59:26.618Z,0.60
2023-04-25T15:01:54.244Z,0.55
2023-04-25T15:04:24.380Z,0.77
2023-04-25T15:06:52.209Z,0.85
2023-04-25T15:09:20.474Z,0.77
2023-04-25T15:11:47.712Z,0.77
2023-04-25T15:14:15.211Z,0.88
2023-04-25T15:16:43.157Z,1.00
2023-04-25T15:19:10.448Z,0.40
2023-04-25T15:21:37.653Z,0.80
2023-04-25T15:24:05.119Z,0.75
2023-04-25T15:26:32.457Z,0.88
2023-04-25T15:28:59.651Z,0.60
2023-04-25T15:31:27.023Z,0.95
2023-04-25T15:33:54.394Z,1.05
2023-04-25T15:36:22.588Z,0.70
2023-04-25T15:38:49.762Z,0.75
2023-04-25T15:41:18.059Z,0.90
2023-04-25T15:43:47.654Z,0.85
2023-04-25T15:46:15.089Z,0.90
2023-04-25T15:48:42.547Z,0.80
2023-04-25T15:51:10.717Z,0.88
2023-04-25T15:53:38.061Z,0.75
2023-04-25T15:56:05.819Z,0.75
2023-04-25T15:58:33.217Z,0.73
2023-04-25T16:01:00.606Z,0.75
2023-04-25T16:03:28.416Z,0.60
2023-04-25T16:05:55.777Z,0.65
2023-04-25T16:08:25.014Z,0.75
2023-04-25T16:10:52.847Z,0.88
2023-04-25T16:13:20.064Z,0.73
2023-04-25T16:15:47.267Z,0.65
2023-04-25T16:18:14.714Z,0.60
2023-04-25T16:20:42.245Z,1.20
2023-04-25T16:23:09.647Z,1.00
2023-04-25T16:25:38.025Z,0.70
2023-04-25T16:28:05.585Z,0.80
2023-04-25T16:30:32.838Z,0.80
2023-04-25T16:33:00.135Z,0.95
2023-04-25T16:35:30.554Z,1.00
2023-04-25T16:37:58.334Z,1.00
2023-04-25T16:40:25.514Z,1.20
2023-04-25T16:42:52.775Z,1.40
2023-04-25T16:45:21.209Z,1.20
2023-04-25T16:47:50.998Z,1.40
2023-04-25T16:50:19.715Z,1.40
2023-04-25T16:52:46.945Z,1.20
2023-04-25T16:55:14.199Z,2.08
2023-04-25T16:57:41.675Z,1.42
2023-04-25T17:00:09.910Z,1.80
2023-04-25T17:02:38.069Z,1.73
2023-04-25T17:05:05.853Z,1.27
2023-04-25T17:07:33.177Z,1.58
2023-04-25T17:10:00.627Z,1.40
2023-04-25T17:12:28.001Z,1.50
2023-04-25T17:14:55.270Z,1.67
2023-04-25T17:17:22.518Z,1.60
2023-04-25T17:19:49.860Z,1.95
2023-04-25T17:22:17.219Z,2.20
2023-04-25T17:24:44.422Z,2.65
2023-04-25T17:27:12.303Z,2.35
2023-04-25T17:29:39.495Z,2.35
2023-04-25T17:32:06.748Z,2.50
2023-04-25T17:34:34.292Z,1.70
2023-04-25T17:37:01.437Z,2.03
2023-04-25T17:39:28.622Z,2.50
2023-04-25T17:41:55.741Z,2.22
2023-04-25T17:44:22.900Z,2.15
2023-04-25T17:46:51.299Z,2.30
2023-04-25T17:49:18.668Z,2.47
2023-04-25T17:51:46.172Z,2.53
2023-04-25T17:54:13.531Z,1.98
2023-04-25T17:56:40.683Z,1.90
2023-04-25T17:59:07.904Z,1.73
2023-04-25T18:01:36.044Z,2.10
2023-04-25T18:04:04.245Z,2.20
2023-04-25T18:06:35.122Z,2.13
2023-04-25T18:09:03.088Z,2.00
2023-04-25T18:11:30.906Z,2.30
2023-04-25T18:13:58.310Z,2.30
2023-04-25T18:16:29.572Z,2.78
2023-04-25T18:19:05.303Z,2.55
2023-04-25T18:21:33.065Z,2.30
2023-04-25T18:24:01.381Z,3.08
2023-04-25T18:26:30.812Z,2.95
2023-04-25T18:28:58.699Z,3.70
2023-04-25T18:31:26.634Z,5.43
2023-04-25T18:33:54.275Z,6.20
2023-04-25T18:36:24.460Z,8.50
2023-04-25T18:38:56.181Z,9.82
2023-04-25T18:43:56.236Z,11.27
2023-04-25T18:46:27.021Z,11.63
2023-04-25T18:48:55.084Z,10.63
2023-04-25T18:51:30.512Z,10.90
2023-04-25T18:53:59.811Z,10.15
2023-04-25T18:56:28.125Z,10.18
2023-04-25T18:58:56.174Z,9.15
2023-04-25T19:01:25.643Z,9.20
2023-04-25T19:03:56.964Z,8.40
2023-04-25T19:06:29.588Z,9.32
2023-04-25T19:08:57.723Z,7.65
2023-04-25T19:11:25.158Z,7.00
2023-04-25T19:13:53.023Z,5.28
2023-04-25T19:16:22.401Z,6.25
2023-04-25T19:18:52.405Z,7.55
2023-04-25T19:21:20.498Z,9.48
2023-04-25T19:23:47.800Z,8.95
2023-04-25T19:26:14.954Z,7.70
2023-04-25T19:28:44.889Z,7.50
2023-04-25T19:31:22.287Z,6.68
2023-04-25T19:33:49.774Z,6.47
2023-04-25T19:36:17.493Z,6.65
2023-04-25T19:38:45.963Z,6.68
2023-04-25T19:41:13.126Z,6.45
2023-04-25T19:43:40.496Z,5.75
2023-04-25T19:46:07.996Z,5.82
2023-04-25T19:48:35.267Z,6.18
2023-04-25T19:51:02.757Z,8.75
2023-04-25T19:53:30.009Z,12.27
2023-04-25T19:55:57.575Z,17.08
2023-04-25T19:58:24.884Z,19.17
2023-04-25T20:00:52.450Z,21.33
2023-04-25T20:03:19.681Z,23.30
2023-04-25T20:05:47.132Z,20.75
2023-04-25T20:08:14.359Z,18.35
2023-04-25T20:10:42.580Z,18.55
2023-04-25T20:13:10.689Z,12.75
2023-04-25T20:15:38.630Z,9.30
2023-04-25T20:18:05.858Z,14.20
2023-04-25T20:20:33.410Z,10.43
2023-04-25T20:23:00.930Z,9.82
2023-04-25T20:25:28.278Z,12.30
2023-04-25T20:27:56.533Z,9.93
2023-04-25T20:30:23.814Z,11.27
2023-04-25T20:32:51.185Z,13.60
2023-04-25T20:35:18.597Z,15.63
2023-04-25T20:37:46.594Z,14.52
2023-04-25T20:40:13.836Z,14.68
2023-04-25T20:42:41.048Z,16.38
2023-04-25T20:45:13.425Z,16.20
2023-04-25T20:47:41.570Z,16.50
2023-04-25T20:50:09.452Z,15.30
2023-04-25T20:52:38.682Z,13.93
2023-04-25T20:55:07.023Z,13.32
2023-04-25T20:57:34.314Z,14.35
2023-04-25T21:00:01.528Z,12.00
2023-04-25T21:02:32.481Z,12.25
2023-04-25T21:04:59.690Z,11.85
2023-04-25T21:07:27.018Z,12.52
2023-04-25T21:09:54.361Z,13.57
2023-04-25T21:12:21.659Z,13.35
2023-04-25T21:14:48.799Z,10.80
2023-04-25T21:17:16.107Z,8.40
2023-04-25T21:19:43.399Z,11.35
2023-04-25T21:22:10.683Z,12.27
2023-04-25T21:24:37.804Z,11.80
2023-04-25T21:27:05.097Z,11.38
2023-04-25T21:29:34.593Z,11.43
2023-04-25T21:32:04.429Z,11.20
2023-04-25T21:34:32.007Z,11.57
2023-04-25T21:36:59.221Z,10.80
2023-04-25T21:39:26.582Z,11.55
2023-04-25T21:41:53.818Z,12.05
2023-04-25T21:44:21.336Z,12.23
2023-04-25T21:46:48.959Z,12.30
2023-04-25T21:49:16.619Z,12.85
2023-04-25T21:51:44.510Z,12.25
2023-04-25T21:54:12.356Z,12.88
2023-04-25T21:56:39.609Z,13.40
2023-04-25T21:59:06.722Z,15.18
2023-04-25T22:01:34.374Z,15.85
2023-04-25T22:04:01.860Z,15.30
2023-04-25T22:06:29.480Z,16.10
2023-04-25T22:08:57.424Z,20.50
2023-04-25T22:11:24.599Z,17.02
2023-04-25T22:13:52.200Z,13.93
2023-04-25T22:16:19.644Z,15.32
2023-04-25T22:18:47.907Z,12.98
2023-04-25T22:21:15.327Z,11.70
2023-04-25T22:23:42.529Z,11.93
2023-04-25T22:26:10.017Z,11.07
2023-04-25T22:28:37.527Z,11.27
2023-04-25T22:31:04.912Z,10.88
2023-04-25T22:33:33.706Z,12.15
2023-04-25T22:36:02.234Z,11.60
2023-04-25T22:38:30.815Z,11.68
2023-04-25T22:40:58.042Z,12.20
2023-04-25T22:43:26.184Z,10.68
2023-04-25T22:45:53.529Z,11.48
2023-04-25T22:48:20.792Z,10.63
2023-04-25T22:50:47.893Z,11.52
2023-04-25T22:53:15.060Z,9.73
2023-04-25T22:55:44.416Z,10.27
2023-04-25T22:58:11.669Z,10.98
2023-04-25T23:00:39.004Z,10.35
2023-04-25T23:03:06.904Z,10.45
2023-04-25T23:05:34.393Z,9.10
2023-04-25T23:08:01.679Z,9.35
2023-04-25T23:10:28.974Z,9.60
2023-04-25T23:13:00.392Z,11.02
2023-04-25T23:15:31.059Z,10.15
2023-04-25T23:17:59.103Z,11.93
2023-04-25T23:20:26.766Z,13.45
2023-04-25T23:22:55.054Z,13.10
2023-04-25T23:25:22.436Z,13.30
2023-04-25T23:27:50.263Z,12.52
2023-04-25T23:30:17.874Z,12.50
2023-04-25T23:32:45.186Z,11.90
2023-04-25T23:35:12.404Z,12.15
2023-04-25T23:37:43.460Z,13.05
2023-04-25T23:40:12.447Z,13.13
2023-04-25T23:42:41.322Z,10.73
2023-04-25T23:45:09.412Z,10.82
2023-04-25T23:47:37.514Z,11.57
2023-04-25T23:50:06.082Z,11.70
2023-04-25T23:52:33.280Z,10.13
2023-04-25T23:55:00.443Z,10.35
2023-04-25T23:57:27.730Z,10.77
2023-04-25T23:59:54.924Z,10.80
